createdAt,value
2019-02-23T08:41:45.550Z,8.51
2019-02-23T08:42:44.890Z,8.52
2019-02-23T08:43:44.859Z,8.33
2019-02-23T08:44:44.826Z,8.49
2019-02-23T08:45:44.795Z,8.69
2019-02-23T08:46:44.764Z,8.69
2019-02-23T08:47:45.091Z,8.67
2019-02-23T08:48:44.721Z,8.71
2019-02-23T08:49:44.668Z,8.71
2019-02-23T08:50:44.635Z,8.73
2019-02-23T08:51:44.603Z,8.94
2019-02-23T08:52:49.226Z,9.16
2019-02-23T08:53:44.541Z,9.16
2019-02-23T08:54:44.511Z,9.26
2019-02-23T08:55:44.491Z,9.25
2019-02-23T08:56:44.660Z,9.37
2019-02-23T08:57:44.418Z,9.47
2019-02-23T08:58:44.386Z,9.47
2019-02-23T08:59:44.361Z,9.56
2019-02-23T09:00:44.327Z,9.47
2019-02-23T09:01:44.297Z,9.46
2019-02-23T09:02:44.265Z,9.58
2019-02-23T09:03:44.236Z,9.80
2019-02-23T09:04:44.202Z,9.73
2019-02-23T09:05:44.179Z,9.94
2019-02-23T09:06:44.147Z,9.92
2019-02-23T09:07:44.118Z,9.95
2019-02-23T09:08:44.215Z,9.68
2019-02-23T09:09:44.060Z,10.33
2019-02-23T09:10:44.027Z,9.95
2019-02-23T09:11:43.997Z,10.12
2019-02-23T09:12:43.970Z,10.10
2019-02-23T09:13:43.940Z,10.26
2019-02-23T09:14:43.911Z,10.44
2019-02-23T09:15:43.880Z,10.38
2019-02-23T09:16:43.850Z,10.59
2019-02-23T09:17:43.822Z,10.84
2019-02-23T09:18:43.789Z,10.67
2019-02-23T09:19:43.761Z,11.04
2019-02-23T09:20:43.729Z,11.43
2019-02-23T09:21:43.702Z,11.66
2019-02-23T09:22:43.674Z,11.36
2019-02-23T09:23:43.643Z,11.36
2019-02-23T09:24:43.615Z,10.90
2019-02-23T09:25:43.589Z,10.79
2019-02-23T09:26:43.559Z,10.84
2019-02-23T09:27:43.528Z,10.93
2019-02-23T09:28:43.503Z,10.99
2019-02-23T09:29:43.471Z,10.94
2019-02-23T09:30:43.444Z,10.90
2019-02-23T09:31:43.417Z,11.35
2019-02-23T09:32:43.386Z,11.48
2019-02-23T09:33:43.359Z,11.63
2019-02-23T09:34:43.327Z,11.57
2019-02-23T09:35:43.301Z,11.57
2019-02-23T09:36:43.272Z,12.03
2019-02-23T09:37:43.243Z,12.37
2019-02-23T09:38:43.216Z,12.35
2019-02-23T09:39:43.191Z,12.55
2019-02-23T09:40:43.159Z,12.65
2019-02-23T09:41:43.134Z,12.73
2019-02-23T09:42:43.104Z,12.80
2019-02-23T09:43:43.074Z,13.11
2019-02-23T09:44:43.051Z,13.16
2019-02-23T09:45:43.022Z,13.23
2019-02-23T09:46:42.939Z,13.44
2019-02-23T09:47:42.913Z,13.79
2019-02-23T09:48:42.885Z,13.20
2019-02-23T09:49:42.860Z,13.31
2019-02-23T09:50:42.836Z,12.98
2019-02-23T09:51:42.804Z,12.61
2019-02-23T09:52:42.778Z,13.13
2019-02-23T09:53:42.754Z,13.33
2019-02-23T09:54:42.727Z,13.87
2019-02-23T09:55:42.700Z,14.00
2019-02-23T09:56:42.673Z,14.14
2019-02-23T09:57:42.649Z,14.50
2019-02-23T09:58:42.621Z,14.41
2019-02-23T09:59:42.594Z,14.25
2019-02-23T10:00:42.569Z,14.18
2019-02-23T10:01:42.543Z,14.43
2019-02-23T10:02:42.517Z,14.23
2019-02-23T10:03:42.489Z,14.11
2019-02-23T10:04:42.466Z,14.55
2019-02-23T10:05:42.440Z,14.77
2019-02-23T10:06:42.421Z,14.73
2019-02-23T10:07:42.386Z,15.09
2019-02-23T10:08:42.360Z,15.10
2019-02-23T10:09:42.333Z,15.22
2019-02-23T10:10:42.314Z,15.27
2019-02-23T10:11:42.288Z,15.70
2019-02-23T10:12:42.258Z,15.58
2019-02-23T10:13:42.231Z,15.11
2019-02-23T10:14:42.206Z,15.21
2019-02-23T10:15:42.177Z,15.33
2019-02-23T10:16:42.156Z,15.27
2019-02-23T10:17:42.130Z,15.19
2019-02-23T10:18:42.104Z,15.09
2019-02-23T10:19:42.076Z,15.03
2019-02-23T10:20:42.052Z,15.35
2019-02-23T10:21:42.028Z,15.27
2019-02-23T10:22:42.059Z,15.22
2019-02-23T10:23:42.032Z,15.18
2019-02-23T10:24:42.008Z,15.10
2019-02-23T10:25:41.928Z,15.19
2019-02-23T10:26:41.900Z,15.55
2019-02-23T10:27:41.929Z,15.73
2019-02-23T10:28:41.853Z,15.64
2019-02-23T10:29:41.882Z,15.76
2019-02-23T10:30:41.856Z,15.95
2019-02-23T10:31:41.776Z,16.13
2019-02-23T10:32:41.806Z,15.97
2019-02-23T10:33:47.570Z,16.00
2019-02-23T10:34:41.754Z,16.24
2019-02-23T10:35:41.731Z,15.95
2019-02-23T10:36:41.705Z,15.97
2019-02-23T10:37:41.681Z,16.16
2019-02-23T10:38:41.657Z,15.67
2019-02-23T10:39:41.630Z,15.64
2019-02-23T10:40:41.608Z,15.18
2019-02-23T10:41:41.583Z,15.84
